Ardenvoir, WA

11:40 AM PDT on August 21, 2014 (GMT -0700)
Entiat Valley | Change Station
CLOSE
Current Station
Personal Weather Station
Location: Entiat, WA
Elevation: 1050 ft
Nearby Weather Stations
Active Advisory: Flash Flood Watch

Elev 1050 ft 47.70 °N, 120.33 °W | Updated 9 seconds ago

Clear
Clear
76.6 °F
Feels Like 78 °F
N
4.0
Wind Variable Wind from ESE
Gusts 5.0 mph

Today
High -- | Low -- °F
--% Chance of Precip.
Yesterday
High -- | Low -- °F
Precip. -- in
6:05 AM 8:03 PM
Waning Crescent, 13% visible
Pressure 29.91 in
Visibility 10.0 miles
Clouds Clear
Heat Index 78 °F
Dew Point 54 °F
Humidity 45%
Rainfall 0.00 in
Snow Depth Not available.
UV 6 out of 12
Pollen 4.00 out of 12
Air Quality Not available.
Flu Activity Not available.
METAR KEAT 211755Z AUTO 28006KT 10SM CLR 23/08 A2993 RMK AO2 SLP126 T02330083 10233 20178 58006

More Conditions Fewer Conditions

Pressure 29.91 in
Visibility 10.0 miles
Clouds Clear
Heat Index 78 °F
Dew Point 54 °F
Humidity 45%
Rainfall 0.00 in
Snow Depth Not available.
UV 6 out of 12
Pollen 4.00 out of 12
Air Quality Not available.
Flu Activity Not available.
METAR KEAT 211755Z AUTO 28006KT 10SM CLR 23/08 A2993 RMK AO2 SLP126 T02330083 10233 20178 58006

More Conditions Fewer Conditions

10-Day Weather Forecast

Almanac

Astronomy

Aug. 21, 2014 Rise Set
Actual Time 6:05 AM PDT 8:03 PM PDT
Civil Twilight 5:31 AM PDT 8:36 PM PDT
Nautical Twilight 4:50 AM PDT 9:16 PM PDT
Astronomical Twilight 4:05 AM PDT 10:02 PM PDT
Moon 2:32 AM PDT 5:41 PM PDT
Length of Visible Light 15h 04m
Length of Day
13h 57m
Tomorrow will be 3m 13s shorter.
Waning Crescent, 13% of the Moon is Illuminated
Today
Waning Crescent
Aug 25
New
Sep 2
First Quarter
Sep 8
Full
Sep 15
Last Quarter

Today's Extremes

State Highs State Lows

Community

WunderPhotos

Upload Photos

1,745,996 photos uploaded!

WunderBlogs® & News

Nearby

Snow Depth

Station Depth Elevation
Stevens Pass 0 in 4070 ft
Grouse Camp 0 in 5380 ft
Trough 0 in 5300 ft
Lyman Lake 0 in 5900 ft
Sasse Ridge 0 in 4200 ft

Earthquake Activity

City Distance Mag. Time & Date
No recent earthquake activity has been reported nearby.
Minimum magnitude displayed is 2.5.

Coastal Water Temperatures

Place Temperature
No Stations Reporting

Nearby Weather Stations